sensor_id;sensor_type;location;lat;lon;timestamp;temperature;humidity
1297;DHT22;641;48.492;9.184;2022-07-23T00:00:16;25.30;99.90
1297;DHT22;641;48.492;9.184;2022-07-23T00:02:43;25.00;99.90
1297;DHT22;641;48.492;9.184;2022-07-23T00:05:09;24.90;99.90
1297;DHT22;641;48.492;9.184;2022-07-23T00:07:35;24.90;99.90
1297;DHT22;641;48.492;9.184;2022-07-23T00:10:01;24.90;99.90
1297;DHT22;641;48.492;9.184;2022-07-23T00:12:27;25.00;99.90
1297;DHT22;641;48.492;9.184;2022-07-23T00:14:52;24.90;99.90
1297;DHT22;641;48.492;9.184;2022-07-23T00:17:18;25.00;99.90
1297;DHT22;641;48.492;9.184;2022-07-23T00:19:44;25.00;99.90
1297;DHT22;641;48.492;9.184;2022-07-23T00:22:09;25.10;99.90
1297;DHT22;641;48.492;9.184;2022-07-23T00:24:35;25.10;99.90
1297;DHT22;641;48.492;9.184;2022-07-23T00:27:01;25.10;99.90
1297;DHT22;641;48.492;9.184;2022-07-23T00:29:26;25.10;99.90
1297;DHT22;641;48.492;9.184;2022-07-23T00:31:52;25.20;99.90
1297;DHT22;641;48.492;9.184;2022-07-23T00:34:17;25.10;99.90
1297;DHT22;641;48.492;9.184;2022-07-23T00:36:43;24.80;99.50
1297;DHT22;641;48.492;9.184;2022-07-23T00:39:08;24.70;99.90
1297;DHT22;641;48.492;9.184;2022-07-23T00:41:34;24.40;99.90
1297;DHT22;641;48.492;9.184;2022-07-23T00:44:23;24.30;99.90
1297;DHT22;641;48.492;9.184;2022-07-23T00:46:52;24.10;99.90
1297;DHT22;641;48.492;9.184;2022-07-23T00:49:29;24.20;99.90
1297;DHT22;641;48.492;9.184;2022-07-23T00:51:56;24.30;99.90
1297;DHT22;641;48.492;9.184;2022-07-23T00:54:26;24.40;99.90
1297;DHT22;641;48.492;9.184;2022-07-23T00:56:52;24.50;99.90
1297;DHT22;641;48.492;9.184;2022-07-23T00:59:18;24.50;99.90
1297;DHT22;641;48.492;9.184;2022-07-23T01:01:44;24.60;99.90
1297;DHT22;641;48.492;9.184;2022-07-23T01:04:10;24.60;99.90
1297;DHT22;641;48.492;9.184;2022-07-23T01:06:37;24.70;99.90
1297;DHT22;641;48.492;9.184;2022-07-23T01:09:05;24.80;99.90
1297;DHT22;641;48.492;9.184;2022-07-23T01:11:35;24.80;99.90
1297;DHT22;641;48.492;9.184;2022-07-23T01:14:16;24.80;99.90
1297;DHT22;641;48.492;9.184;2022-07-23T01:16:44;24.80;99.90
1297;DHT22;641;48.492;9.184;2022-07-23T01:19:10;24.70;99.90
1297;DHT22;641;48.492;9.184;2022-07-23T01:21:38;24.70;99.90
1297;DHT22;641;48.492;9.184;2022-07-23T01:24:04;24.80;99.90
1297;DHT22;641;48.492;9.184;2022-07-23T01:26:30;24.80;99.90
1297;DHT22;641;48.492;9.184;2022-07-23T01:28:56;24.80;99.90
1297;DHT22;641;48.492;9.184;2022-07-23T01:31:22;24.70;99.90
1297;DHT22;641;48.492;9.184;2022-07-23T01:33:48;24.60;99.90
1297;DHT22;641;48.492;9.184;2022-07-23T01:36:14;24.70;99.90
1297;DHT22;641;48.492;9.184;2022-07-23T01:38:39;24.80;99.90
1297;DHT22;641;48.492;9.184;2022-07-23T01:41:05;24.70;99.90
1297;DHT22;641;48.492;9.184;2022-07-23T01:43:31;24.70;99.90
1297;DHT22;641;48.492;9.184;2022-07-23T01:45:56;24.70;99.90
1297;DHT22;641;48.492;9.184;2022-07-23T01:48:22;24.70;99.90
1297;DHT22;641;48.492;9.184;2022-07-23T01:50:48;24.70;99.90
1297;DHT22;641;48.492;9.184;2022-07-23T01:53:14;24.70;99.90
1297;DHT22;641;48.492;9.184;2022-07-23T01:55:41;24.60;99.90
1297;DHT22;641;48.492;9.184;2022-07-23T01:58:06;24.60;99.90
1297;DHT22;641;48.492;9.184;2022-07-23T02:00:32;24.60;99.90
1297;DHT22;641;48.492;9.184;2022-07-23T02:02:58;24.60;99.90
1297;DHT22;641;48.492;9.184;2022-07-23T02:05:24;24.60;99.90
1297;DHT22;641;48.492;9.184;2022-07-23T02:07:50;24.60;99.90
1297;DHT22;641;48.492;9.184;2022-07-23T02:10:16;24.60;99.90
1297;DHT22;641;48.492;9.184;2022-07-23T02:12:42;24.60;99.90
1297;DHT22;641;48.492;9.184;2022-07-23T02:15:08;24.70;99.80
1297;DHT22;641;48.492;9.184;2022-07-23T02:17:33;24.70;99.50
1297;DHT22;641;48.492;9.184;2022-07-23T02:19:59;24.80;99.10
1297;DHT22;641;48.492;9.184;2022-07-23T02:22:25;24.60;99.10
1297;DHT22;641;48.492;9.184;2022-07-23T02:24:50;24.30;99.90
1297;DHT22;641;48.492;9.184;2022-07-23T02:27:16;24.10;99.90
1297;DHT22;641;48.492;9.184;2022-07-23T02:29:41;24.00;99.90
1297;DHT22;641;48.492;9.184;2022-07-23T02:32:07;24.10;99.90
1297;DHT22;641;48.492;9.184;2022-07-23T02:34:33;23.70;99.90
1297;DHT22;641;48.492;9.184;2022-07-23T02:36:58;23.70;99.90
1297;DHT22;641;48.492;9.184;2022-07-23T02:39:24;23.70;99.90
1297;DHT22;641;48.492;9.184;2022-07-23T02:41:49;23.80;99.90
1297;DHT22;641;48.492;9.184;2022-07-23T02:44:15;23.80;99.90
1297;DHT22;641;48.492;9.184;2022-07-23T02:46:40;23.80;99.90
1297;DHT22;641;48.492;9.184;2022-07-23T02:49:06;23.80;99.90
1297;DHT22;641;48.492;9.184;2022-07-23T02:51:32;23.90;99.90
1297;DHT22;641;48.492;9.184;2022-07-23T02:53:57;24.00;99.90
1297;DHT22;641;48.492;9.184;2022-07-23T02:56:23;23.90;99.90
1297;DHT22;641;48.492;9.184;2022-07-23T02:58:48;23.90;99.90
1297;DHT22;641;48.492;9.184;2022-07-23T03:01:14;23.90;99.90
1297;DHT22;641;48.492;9.184;2022-07-23T03:03:40;23.90;99.90
1297;DHT22;641;48.492;9.184;2022-07-23T03:06:06;24.00;99.90
1297;DHT22;641;48.492;9.184;2022-07-23T03:08:31;24.00;99.90
1297;DHT22;641;48.492;9.184;2022-07-23T03:10:57;24.10;99.90
1297;DHT22;641;48.492;9.184;2022-07-23T03:13:22;24.10;99.90
1297;DHT22;641;48.492;9.184;2022-07-23T03:15:48;24.20;99.90
1297;DHT22;641;48.492;9.184;2022-07-23T03:18:14;24.20;99.90
1297;DHT22;641;48.492;9.184;2022-07-23T03:20:39;24.20;99.90
1297;DHT22;641;48.492;9.184;2022-07-23T03:23:05;24.20;99.90
1297;DHT22;641;48.492;9.184;2022-07-23T03:25:31;24.20;99.90
1297;DHT22;641;48.492;9.184;2022-07-23T03:27:56;24.20;99.90
1297;DHT22;641;48.492;9.184;2022-07-23T03:30:22;24.20;99.90
1297;DHT22;641;48.492;9.184;2022-07-23T03:32:48;24.10;99.90
1297;DHT22;641;48.492;9.184;2022-07-23T03:35:13;24.10;99.90
1297;DHT22;641;48.492;9.184;2022-07-23T03:37:39;24.10;99.90
1297;DHT22;641;48.492;9.184;2022-07-23T03:40:05;24.00;99.90
1297;DHT22;641;48.492;9.184;2022-07-23T03:42:31;23.90;99.90
1297;DHT22;641;48.492;9.184;2022-07-23T03:44:57;23.90;99.90
1297;DHT22;641;48.492;9.184;2022-07-23T03:47:22;23.90;99.90
1297;DHT22;641;48.492;9.184;2022-07-23T03:49:48;23.90;99.90
1297;DHT22;641;48.492;9.184;2022-07-23T03:52:14;23.90;99.90
1297;DHT22;641;48.492;9.184;2022-07-23T03:54:40;23.80;99.90
1297;DHT22;641;48.492;9.184;2022-07-23T03:57:05;23.80;99.90
1297;DHT22;641;48.492;9.184;2022-07-23T03:59:31;23.80;99.90
1297;DHT22;641;48.492;9.184;2022-07-23T04:01:57;23.80;99.90
1297;DHT22;641;48.492;9.184;2022-07-23T04:04:22;23.70;99.90
1297;DHT22;641;48.492;9.184;2022-07-23T04:06:48;23.80;99.90
1297;DHT22;641;48.492;9.184;2022-07-23T04:09:14;23.80;99.90
1297;DHT22;641;48.492;9.184;2022-07-23T04:11:39;23.80;99.90
1297;DHT22;641;48.492;9.184;2022-07-23T04:14:05;23.90;99.90
1297;DHT22;641;48.492;9.184;2022-07-23T04:16:31;23.90;99.90
1297;DHT22;641;48.492;9.184;2022-07-23T04:18:57;23.90;99.90
1297;DHT22;641;48.492;9.184;2022-07-23T04:21:24;24.00;99.90
1297;DHT22;641;48.492;9.184;2022-07-23T04:23:49;24.00;99.90
1297;DHT22;641;48.492;9.184;2022-07-23T04:26:15;24.00;99.90
1297;DHT22;641;48.492;9.184;2022-07-23T04:28:41;23.90;99.90
1297;DHT22;641;48.492;9.184;2022-07-23T04:36:17;23.80;99.90
1297;DHT22;641;48.492;9.184;2022-07-23T05:07:02;24.40;99.90
1297;DHT22;641;48.492;9.184;2022-07-23T05:09:28;24.40;99.90
1297;DHT22;641;48.492;9.184;2022-07-23T05:11:54;24.40;99.90
1297;DHT22;641;48.492;9.184;2022-07-23T05:14:19;24.50;99.90
1297;DHT22;641;48.492;9.184;2022-07-23T05:16:45;24.50;99.90
1297;DHT22;641;48.492;9.184;2022-07-23T05:19:10;24.50;99.90
1297;DHT22;641;48.492;9.184;2022-07-23T05:21:36;24.50;99.90
1297;DHT22;641;48.492;9.184;2022-07-23T05:24:02;24.40;99.90
1297;DHT22;641;48.492;9.184;2022-07-23T05:26:27;24.50;99.90
1297;DHT22;641;48.492;9.184;2022-07-23T05:28:53;24.60;99.90
1297;DHT22;641;48.492;9.184;2022-07-23T05:31:18;24.60;99.90
1297;DHT22;641;48.492;9.184;2022-07-23T05:33:44;24.60;99.90
1297;DHT22;641;48.492;9.184;2022-07-23T05:36:10;24.60;99.90
1297;DHT22;641;48.492;9.184;2022-07-23T05:38:36;24.60;99.90
1297;DHT22;641;48.492;9.184;2022-07-23T05:41:02;24.60;99.90
1297;DHT22;641;48.492;9.184;2022-07-23T05:43:28;24.70;99.90
1297;DHT22;641;48.492;9.184;2022-07-23T05:45:54;24.60;99.90
1297;DHT22;641;48.492;9.184;2022-07-23T05:48:19;24.70;99.90
1297;DHT22;641;48.492;9.184;2022-07-23T05:50:46;24.80;99.90
1297;DHT22;641;48.492;9.184;2022-07-23T05:53:12;24.90;99.90
1297;DHT22;641;48.492;9.184;2022-07-23T05:55:38;25.00;99.90
1297;DHT22;641;48.492;9.184;2022-07-23T05:58:04;25.00;99.90
1297;DHT22;641;48.492;9.184;2022-07-23T06:00:30;25.10;99.90
1297;DHT22;641;48.492;9.184;2022-07-23T06:05:22;25.20;99.90
1297;DHT22;641;48.492;9.184;2022-07-23T06:07:48;25.30;99.90
1297;DHT22;641;48.492;9.184;2022-07-23T06:10:14;25.50;99.90
1297;DHT22;641;48.492;9.184;2022-07-23T06:12:40;25.60;99.90
1297;DHT22;641;48.492;9.184;2022-07-23T06:15:06;25.80;99.90
1297;DHT22;641;48.492;9.184;2022-07-23T06:17:32;25.80;99.40
1297;DHT22;641;48.492;9.184;2022-07-23T06:19:58;25.90;99.40
1297;DHT22;641;48.492;9.184;2022-07-23T06:22:24;25.90;98.90
1297;DHT22;641;48.492;9.184;2022-07-23T06:24:50;26.00;99.40
1297;DHT22;641;48.492;9.184;2022-07-23T06:27:19;26.20;99.40
1297;DHT22;641;48.492;9.184;2022-07-23T06:29:44;26.30;99.30
1297;DHT22;641;48.492;9.184;2022-07-23T06:32:11;26.40;98.80
1297;DHT22;641;48.492;9.184;2022-07-23T06:34:36;26.50;98.40
1297;DHT22;641;48.492;9.184;2022-07-23T06:37:02;26.60;97.90
1297;DHT22;641;48.492;9.184;2022-07-23T06:39:28;26.60;98.10
1297;DHT22;641;48.492;9.184;2022-07-23T06:41:54;26.60;97.20
1297;DHT22;641;48.492;9.184;2022-07-23T06:44:19;26.40;97.50
1297;DHT22;641;48.492;9.184;2022-07-23T06:46:45;26.20;97.80
1297;DHT22;641;48.492;9.184;2022-07-23T06:49:12;26.10;98.00
1297;DHT22;641;48.492;9.184;2022-07-23T06:51:38;26.10;98.20
1297;DHT22;641;48.492;9.184;2022-07-23T06:54:04;26.00;98.50
1297;DHT22;641;48.492;9.184;2022-07-23T06:56:29;26.10;98.50
1297;DHT22;641;48.492;9.184;2022-07-23T06:58:55;26.30;98.60
1297;DHT22;641;48.492;9.184;2022-07-23T07:01:20;26.50;98.70
1297;DHT22;641;48.492;9.184;2022-07-23T07:03:47;26.70;98.60
1297;DHT22;641;48.492;9.184;2022-07-23T07:06:12;26.90;98.00
1297;DHT22;641;48.492;9.184;2022-07-23T07:08:38;26.90;97.70
1297;DHT22;641;48.492;9.184;2022-07-23T07:11:04;26.90;97.70
1297;DHT22;641;48.492;9.184;2022-07-23T07:13:29;26.50;98.40
1297;DHT22;641;48.492;9.184;2022-07-23T07:15:55;26.40;98.40
1297;DHT22;641;48.492;9.184;2022-07-23T07:18:21;26.60;98.60
1297;DHT22;641;48.492;9.184;2022-07-23T07:20:46;26.80;98.10
1297;DHT22;641;48.492;9.184;2022-07-23T07:23:13;27.00;97.60
1297;DHT22;641;48.492;9.184;2022-07-23T07:25:38;27.10;97.30
1297;DHT22;641;48.492;9.184;2022-07-23T07:28:04;27.00;97.20
1297;DHT22;641;48.492;9.184;2022-07-23T07:30:30;27.10;97.00
1297;DHT22;641;48.492;9.184;2022-07-23T07:32:55;27.30;96.80
1297;DHT22;641;48.492;9.184;2022-07-23T07:35:21;27.40;97.30
1297;DHT22;641;48.492;9.184;2022-07-23T07:37:47;27.70;96.90
1297;DHT22;641;48.492;9.184;2022-07-23T07:40:13;27.80;97.20
1297;DHT22;641;48.492;9.184;2022-07-23T07:42:51;28.00;96.70
1297;DHT22;641;48.492;9.184;2022-07-23T07:45:19;28.10;96.00
1297;DHT22;641;48.492;9.184;2022-07-23T07:47:45;28.10;94.60
1297;DHT22;641;48.492;9.184;2022-07-23T07:50:10;28.00;94.90
1297;DHT22;641;48.492;9.184;2022-07-23T07:52:36;28.10;94.80
1297;DHT22;641;48.492;9.184;2022-07-23T07:55:07;28.20;93.90
1297;DHT22;641;48.492;9.184;2022-07-23T07:57:33;28.20;94.50
1297;DHT22;641;48.492;9.184;2022-07-23T07:59:58;28.20;94.50
1297;DHT22;641;48.492;9.184;2022-07-23T08:02:24;28.30;94.70
1297;DHT22;641;48.492;9.184;2022-07-23T08:04:50;28.40;94.30
1297;DHT22;641;48.492;9.184;2022-07-23T08:07:15;28.40;94.20
1297;DHT22;641;48.492;9.184;2022-07-23T08:09:41;28.50;94.20
1297;DHT22;641;48.492;9.184;2022-07-23T08:12:07;28.50;94.10
1297;DHT22;641;48.492;9.184;2022-07-23T08:19:25;28.50;92.30
1297;DHT22;641;48.492;9.184;2022-07-23T08:21:51;28.50;92.70
1297;DHT22;641;48.492;9.184;2022-07-23T08:24:16;28.30;92.70
1297;DHT22;641;48.492;9.184;2022-07-23T08:26:42;28.20;93.90
1297;DHT22;641;48.492;9.184;2022-07-23T08:29:08;28.10;94.90
1297;DHT22;641;48.492;9.184;2022-07-23T08:31:44;28.20;95.50
1297;DHT22;641;48.492;9.184;2022-07-23T08:34:11;28.20;95.20
1297;DHT22;641;48.492;9.184;2022-07-23T08:36:36;28.10;95.50
1297;DHT22;641;48.492;9.184;2022-07-23T08:41:29;28.30;95.30
1297;DHT22;641;48.492;9.184;2022-07-23T08:43:55;28.40;95.30
1297;DHT22;641;48.492;9.184;2022-07-23T08:46:22;28.40;94.80
1297;DHT22;641;48.492;9.184;2022-07-23T08:48:49;28.40;94.60
1297;DHT22;641;48.492;9.184;2022-07-23T08:51:15;28.30;93.90
1297;DHT22;641;48.492;9.184;2022-07-23T08:53:41;28.40;94.00
1297;DHT22;641;48.492;9.184;2022-07-23T08:56:08;28.60;94.20
1297;DHT22;641;48.492;9.184;2022-07-23T08:58:34;28.60;93.60
1297;DHT22;641;48.492;9.184;2022-07-23T09:01:01;28.00;93.60
1297;DHT22;641;48.492;9.184;2022-07-23T09:05:54;27.70;94.00
1297;DHT22;641;48.492;9.184;2022-07-23T09:08:36;27.80;94.40
1297;DHT22;641;48.492;9.184;2022-07-23T09:11:07;28.00;95.20
1297;DHT22;641;48.492;9.184;2022-07-23T09:13:35;27.70;95.40
1297;DHT22;641;48.492;9.184;2022-07-23T09:16:03;28.30;94.30
1297;DHT22;641;48.492;9.184;2022-07-23T09:18:46;28.50;93.80
1297;DHT22;641;48.492;9.184;2022-07-23T09:21:19;28.70;94.20
1297;DHT22;641;48.492;9.184;2022-07-23T09:26:38;28.90;93.70
1297;DHT22;641;48.492;9.184;2022-07-23T09:29:17;29.20;93.90
1297;DHT22;641;48.492;9.184;2022-07-23T09:31:56;29.40;93.20
1297;DHT22;641;48.492;9.184;2022-07-23T09:34:48;29.50;93.20
1297;DHT22;641;48.492;9.184;2022-07-23T09:37:16;29.50;93.30
1297;DHT22;641;48.492;9.184;2022-07-23T09:39:44;29.40;92.60
1297;DHT22;641;48.492;9.184;2022-07-23T09:44:47;29.20;93.50
1297;DHT22;641;48.492;9.184;2022-07-23T09:47:13;29.20;92.90
1297;DHT22;641;48.492;9.184;2022-07-23T09:49:39;29.00;93.50
1297;DHT22;641;48.492;9.184;2022-07-23T09:52:05;29.00;93.40
1297;DHT22;641;48.492;9.184;2022-07-23T09:54:37;29.00;93.00
1297;DHT22;641;48.492;9.184;2022-07-23T09:59:36;29.30;92.10
1297;DHT22;641;48.492;9.184;2022-07-23T10:02:05;29.30;93.00
1297;DHT22;641;48.492;9.184;2022-07-23T10:06:59;29.30;91.60
1297;DHT22;641;48.492;9.184;2022-07-23T10:09:37;28.80;92.40
1297;DHT22;641;48.492;9.184;2022-07-23T10:12:05;28.90;93.20
1297;DHT22;641;48.492;9.184;2022-07-23T10:17:03;29.30;93.00
1297;DHT22;641;48.492;9.184;2022-07-23T10:19:30;29.50;92.70
1297;DHT22;641;48.492;9.184;2022-07-23T10:22:00;29.60;92.20
1297;DHT22;641;48.492;9.184;2022-07-23T10:24:50;29.70;92.00
1297;DHT22;641;48.492;9.184;2022-07-23T10:30:04;29.40;91.80
1297;DHT22;641;48.492;9.184;2022-07-23T10:32:40;29.00;92.20
1297;DHT22;641;48.492;9.184;2022-07-23T10:38:25;29.20;91.80
1297;DHT22;641;48.492;9.184;2022-07-23T10:43:24;29.20;91.70
1297;DHT22;641;48.492;9.184;2022-07-23T10:45:50;29.40;92.40
1297;DHT22;641;48.492;9.184;2022-07-23T10:48:25;29.50;91.80
1297;DHT22;641;48.492;9.184;2022-07-23T10:51:11;29.50;91.50
1297;DHT22;641;48.492;9.184;2022-07-23T10:53:58;29.10;91.90
1297;DHT22;641;48.492;9.184;2022-07-23T10:57:16;29.40;92.80
1297;DHT22;641;48.492;9.184;2022-07-23T11:02:34;29.20;91.90
1297;DHT22;641;48.492;9.184;2022-07-23T11:05:13;29.40;91.50
1297;DHT22;641;48.492;9.184;2022-07-23T11:24:14;29.50;90.20
1297;DHT22;641;48.492;9.184;2022-07-23T11:34:35;29.70;88.80
1297;DHT22;641;48.492;9.184;2022-07-23T11:37:03;29.70;89.80
1297;DHT22;641;48.492;9.184;2022-07-23T11:39:30;29.40;88.60
1297;DHT22;641;48.492;9.184;2022-07-23T11:41:57;29.30;90.20
1297;DHT22;641;48.492;9.184;2022-07-23T11:44:27;29.60;90.40
1297;DHT22;641;48.492;9.184;2022-07-23T11:46:59;29.90;90.00
1297;DHT22;641;48.492;9.184;2022-07-23T11:49:26;29.90;89.50
1297;DHT22;641;48.492;9.184;2022-07-23T11:52:11;29.80;90.30
1297;DHT22;641;48.492;9.184;2022-07-23T11:54:51;29.70;90.50
1297;DHT22;641;48.492;9.184;2022-07-23T11:57:18;29.60;91.30
1297;DHT22;641;48.492;9.184;2022-07-23T11:59:46;29.80;91.40
1297;DHT22;641;48.492;9.184;2022-07-23T12:02:12;30.00;92.40
1297;DHT22;641;48.492;9.184;2022-07-23T12:04:40;30.20;91.60
1297;DHT22;641;48.492;9.184;2022-07-23T12:09:50;30.10;91.40
1297;DHT22;641;48.492;9.184;2022-07-23T12:14:53;29.60;90.30
1297;DHT22;641;48.492;9.184;2022-07-23T12:17:20;29.40;91.10
1297;DHT22;641;48.492;9.184;2022-07-23T12:19:46;29.50;89.90
1297;DHT22;641;48.492;9.184;2022-07-23T12:22:12;29.50;90.30
1297;DHT22;641;48.492;9.184;2022-07-23T12:25:03;29.60;90.80
1297;DHT22;641;48.492;9.184;2022-07-23T12:27:30;29.80;89.70
1297;DHT22;641;48.492;9.184;2022-07-23T12:29:55;29.80;90.00
1297;DHT22;641;48.492;9.184;2022-07-23T12:32:28;29.90;88.60
1297;DHT22;641;48.492;9.184;2022-07-23T12:35:08;30.00;90.40
1297;DHT22;641;48.492;9.184;2022-07-23T12:37:45;30.10;90.00
1297;DHT22;641;48.492;9.184;2022-07-23T12:40:35;30.00;87.70
1297;DHT22;641;48.492;9.184;2022-07-23T12:43:03;30.30;88.90
1297;DHT22;641;48.492;9.184;2022-07-23T12:45:49;30.40;86.30
1297;DHT22;641;48.492;9.184;2022-07-23T12:48:25;30.40;86.70
1297;DHT22;641;48.492;9.184;2022-07-23T12:51:00;30.60;87.50
1297;DHT22;641;48.492;9.184;2022-07-23T12:53:29;30.70;88.60
1297;DHT22;641;48.492;9.184;2022-07-23T13:04:03;31.10;86.30
1297;DHT22;641;48.492;9.184;2022-07-23T13:06:34;31.20;86.30
1297;DHT22;641;48.492;9.184;2022-07-23T13:09:01;30.90;87.30
1297;DHT22;641;48.492;9.184;2022-07-23T13:11:27;30.90;86.30
1297;DHT22;641;48.492;9.184;2022-07-23T13:13:53;30.90;85.30
1297;DHT22;641;48.492;9.184;2022-07-23T13:16:19;30.90;86.60
1297;DHT22;641;48.492;9.184;2022-07-23T13:18:44;30.90;86.70
1297;DHT22;641;48.492;9.184;2022-07-23T13:21:10;31.00;87.00
1297;DHT22;641;48.492;9.184;2022-07-23T13:23:36;31.00;86.80
1297;DHT22;641;48.492;9.184;2022-07-23T13:26:02;30.90;84.70
1297;DHT22;641;48.492;9.184;2022-07-23T13:28:28;30.90;85.80
1297;DHT22;641;48.492;9.184;2022-07-23T13:30:54;30.70;85.50
1297;DHT22;641;48.492;9.184;2022-07-23T13:33:22;30.80;86.80
1297;DHT22;641;48.492;9.184;2022-07-23T13:35:48;31.00;85.50
1297;DHT22;641;48.492;9.184;2022-07-23T13:38:13;31.00;83.70
1297;DHT22;641;48.492;9.184;2022-07-23T13:40:42;30.70;82.90
1297;DHT22;641;48.492;9.184;2022-07-23T13:43:10;30.50;84.80
1297;DHT22;641;48.492;9.184;2022-07-23T13:45:36;30.60;85.50
1297;DHT22;641;48.492;9.184;2022-07-23T13:48:03;30.50;84.40
1297;DHT22;641;48.492;9.184;2022-07-23T13:50:30;30.60;83.80
1297;DHT22;641;48.492;9.184;2022-07-23T13:52:56;30.70;85.50
1297;DHT22;641;48.492;9.184;2022-07-23T13:55:22;30.80;82.60
1297;DHT22;641;48.492;9.184;2022-07-23T13:57:48;30.60;83.50
1297;DHT22;641;48.492;9.184;2022-07-23T14:00:14;30.70;84.20
1297;DHT22;641;48.492;9.184;2022-07-23T14:02:40;30.70;83.50
1297;DHT22;641;48.492;9.184;2022-07-23T14:05:08;30.50;82.80
1297;DHT22;641;48.492;9.184;2022-07-23T14:07:35;30.50;82.60
1297;DHT22;641;48.492;9.184;2022-07-23T14:10:04;30.20;83.60
1297;DHT22;641;48.492;9.184;2022-07-23T14:12:31;30.00;84.60
1297;DHT22;641;48.492;9.184;2022-07-23T14:17:24;30.10;86.00
1297;DHT22;641;48.492;9.184;2022-07-23T14:19:50;30.20;88.90
1297;DHT22;641;48.492;9.184;2022-07-23T14:22:16;30.30;88.00
1297;DHT22;641;48.492;9.184;2022-07-23T14:24:42;30.40;85.90
1297;DHT22;641;48.492;9.184;2022-07-23T14:27:09;30.60;86.10
1297;DHT22;641;48.492;9.184;2022-07-23T14:29:34;30.60;86.20
1297;DHT22;641;48.492;9.184;2022-07-23T14:32:01;30.70;86.90
1297;DHT22;641;48.492;9.184;2022-07-23T14:34:27;30.50;84.80
1297;DHT22;641;48.492;9.184;2022-07-23T14:36:52;30.50;86.70
1297;DHT22;641;48.492;9.184;2022-07-23T14:39:20;30.50;87.30
1297;DHT22;641;48.492;9.184;2022-07-23T14:41:46;30.50;86.60
1297;DHT22;641;48.492;9.184;2022-07-23T14:44:12;30.40;87.60
1297;DHT22;641;48.492;9.184;2022-07-23T14:46:37;30.50;87.00
1297;DHT22;641;48.492;9.184;2022-07-23T14:49:03;30.50;86.50
1297;DHT22;641;48.492;9.184;2022-07-23T14:51:29;30.70;86.40
1297;DHT22;641;48.492;9.184;2022-07-23T14:53:55;31.00;84.30
1297;DHT22;641;48.492;9.184;2022-07-23T14:56:20;31.20;83.40
1297;DHT22;641;48.492;9.184;2022-07-23T14:58:46;31.20;83.00
1297;DHT22;641;48.492;9.184;2022-07-23T15:01:12;31.30;82.60
1297;DHT22;641;48.492;9.184;2022-07-23T15:03:38;31.20;81.90
1297;DHT22;641;48.492;9.184;2022-07-23T15:06:04;30.80;81.50
1297;DHT22;641;48.492;9.184;2022-07-23T15:08:30;30.80;84.20
1297;DHT22;641;48.492;9.184;2022-07-23T15:10:56;31.30;83.50
1297;DHT22;641;48.492;9.184;2022-07-23T15:13:22;31.70;80.90
1297;DHT22;641;48.492;9.184;2022-07-23T15:15:47;32.00;80.40
1297;DHT22;641;48.492;9.184;2022-07-23T15:18:13;32.30;79.70
1297;DHT22;641;48.492;9.184;2022-07-23T15:20:39;32.80;78.60
1297;DHT22;641;48.492;9.184;2022-07-23T15:23:05;33.00;75.50
1297;DHT22;641;48.492;9.184;2022-07-23T15:25:31;33.20;76.30
1297;DHT22;641;48.492;9.184;2022-07-23T15:27:57;33.30;76.10
1297;DHT22;641;48.492;9.184;2022-07-23T15:30:27;33.70;74.90
1297;DHT22;641;48.492;9.184;2022-07-23T15:32:53;34.20;73.60
1297;DHT22;641;48.492;9.184;2022-07-23T15:35:19;34.30;71.10
1297;DHT22;641;48.492;9.184;2022-07-23T15:37:45;34.40;71.60
1297;DHT22;641;48.492;9.184;2022-07-23T15:40:11;34.60;73.00
1297;DHT22;641;48.492;9.184;2022-07-23T15:42:37;34.90;70.50
1297;DHT22;641;48.492;9.184;2022-07-23T15:45:03;35.30;71.90
1297;DHT22;641;48.492;9.184;2022-07-23T15:47:29;35.70;70.00
1297;DHT22;641;48.492;9.184;2022-07-23T15:49:55;36.00;69.20
1297;DHT22;641;48.492;9.184;2022-07-23T15:52:20;36.30;67.90
1297;DHT22;641;48.492;9.184;2022-07-23T15:54:46;36.00;66.50
1297;DHT22;641;48.492;9.184;2022-07-23T15:57:12;35.50;67.80
1297;DHT22;641;48.492;9.184;2022-07-23T15:59:38;34.90;69.20
1297;DHT22;641;48.492;9.184;2022-07-23T16:02:04;34.40;69.50
1297;DHT22;641;48.492;9.184;2022-07-23T16:04:30;33.90;70.70
1297;DHT22;641;48.492;9.184;2022-07-23T16:06:56;33.50;70.60
1297;DHT22;641;48.492;9.184;2022-07-23T16:09:22;33.00;70.30
1297;DHT22;641;48.492;9.184;2022-07-23T16:11:48;32.50;72.30
1297;DHT22;641;48.492;9.184;2022-07-23T16:14:23;32.30;73.50
1297;DHT22;641;48.492;9.184;2022-07-23T16:17:02;32.20;75.20
1297;DHT22;641;48.492;9.184;2022-07-23T16:19:28;32.10;73.70
1297;DHT22;641;48.492;9.184;2022-07-23T16:21:54;31.90;74.00
1297;DHT22;641;48.492;9.184;2022-07-23T16:24:19;31.70;73.00
1297;DHT22;641;48.492;9.184;2022-07-23T16:26:46;31.60;75.10
1297;DHT22;641;48.492;9.184;2022-07-23T16:29:12;31.50;74.20
1297;DHT22;641;48.492;9.184;2022-07-23T16:31:38;31.30;75.60
1297;DHT22;641;48.492;9.184;2022-07-23T16:34:04;31.30;76.40
1297;DHT22;641;48.492;9.184;2022-07-23T16:36:29;31.30;76.30
1297;DHT22;641;48.492;9.184;2022-07-23T16:38:56;31.20;76.30
1297;DHT22;641;48.492;9.184;2022-07-23T16:41:23;31.20;76.20
1297;DHT22;641;48.492;9.184;2022-07-23T16:43:49;31.30;76.60
1297;DHT22;641;48.492;9.184;2022-07-23T16:46:14;31.30;75.80
1297;DHT22;641;48.492;9.184;2022-07-23T16:48:40;31.50;76.20
1297;DHT22;641;48.492;9.184;2022-07-23T16:51:06;31.60;77.60
1297;DHT22;641;48.492;9.184;2022-07-23T16:53:32;31.50;75.20
1297;DHT22;641;48.492;9.184;2022-07-23T16:55:57;31.80;75.00
1297;DHT22;641;48.492;9.184;2022-07-23T16:58:23;32.30;76.00
1297;DHT22;641;48.492;9.184;2022-07-23T17:00:49;32.80;72.70
1297;DHT22;641;48.492;9.184;2022-07-23T17:03:15;32.60;71.40
1297;DHT22;641;48.492;9.184;2022-07-23T17:05:43;32.50;72.80
1297;DHT22;641;48.492;9.184;2022-07-23T17:08:08;32.30;71.70
1297;DHT22;641;48.492;9.184;2022-07-23T17:10:34;31.90;73.80
1297;DHT22;641;48.492;9.184;2022-07-23T17:12:59;31.70;73.10
1297;DHT22;641;48.492;9.184;2022-07-23T17:15:25;31.60;73.70
1297;DHT22;641;48.492;9.184;2022-07-23T17:17:51;31.40;76.00
1297;DHT22;641;48.492;9.184;2022-07-23T17:20:17;31.30;74.60
1297;DHT22;641;48.492;9.184;2022-07-23T17:22:43;31.30;74.60
1297;DHT22;641;48.492;9.184;2022-07-23T17:25:10;31.20;77.30
1297;DHT22;641;48.492;9.184;2022-07-23T17:27:43;31.30;75.90
1297;DHT22;641;48.492;9.184;2022-07-23T17:30:11;31.20;75.90
1297;DHT22;641;48.492;9.184;2022-07-23T17:32:37;31.20;76.40
1297;DHT22;641;48.492;9.184;2022-07-23T17:35:04;31.20;77.90
1297;DHT22;641;48.492;9.184;2022-07-23T17:37:30;31.30;76.20
1297;DHT22;641;48.492;9.184;2022-07-23T17:39:55;31.30;76.10
1297;DHT22;641;48.492;9.184;2022-07-23T17:42:21;31.30;75.30
1297;DHT22;641;48.492;9.184;2022-07-23T17:44:46;31.30;74.60
1297;DHT22;641;48.492;9.184;2022-07-23T17:47:12;31.20;75.70
1297;DHT22;641;48.492;9.184;2022-07-23T17:49:38;31.20;74.30
1297;DHT22;641;48.492;9.184;2022-07-23T17:52:04;31.20;74.40
1297;DHT22;641;48.492;9.184;2022-07-23T17:54:30;31.20;75.20
1297;DHT22;641;48.492;9.184;2022-07-23T17:56:56;31.30;74.40
1297;DHT22;641;48.492;9.184;2022-07-23T17:59:22;31.30;75.60
1297;DHT22;641;48.492;9.184;2022-07-23T18:01:49;31.30;75.80
1297;DHT22;641;48.492;9.184;2022-07-23T18:04:14;31.20;75.30
1297;DHT22;641;48.492;9.184;2022-07-23T18:06:41;31.00;73.70